createdAt,value
2023-05-06T00:00:15.600Z,0.00
2023-05-06T00:01:15.504Z,0.00
2023-05-06T00:02:15.516Z,0.00
2023-05-06T00:03:15.646Z,0.00
2023-05-06T00:04:15.666Z,0.00
2023-05-06T00:05:15.462Z,0.00
2023-05-06T00:06:15.485Z,0.00
2023-05-06T00:07:15.439Z,0.00
2023-05-06T00:08:15.426Z,0.00
2023-05-06T00:09:15.434Z,0.00
2023-05-06T00:10:15.403Z,0.00
2023-05-06T00:11:15.414Z,0.00
2023-05-06T00:12:15.399Z,0.00
2023-05-06T00:13:15.515Z,0.00
2023-05-06T00:14:15.374Z,0.00
2023-05-06T00:15:15.408Z,0.00
2023-05-06T00:16:15.344Z,0.00
2023-05-06T00:17:15.361Z,0.00
2023-05-06T00:18:15.347Z,0.00
2023-05-06T00:19:15.303Z,0.00
2023-05-06T00:20:15.295Z,0.00
2023-05-06T00:21:15.285Z,0.00
2023-05-06T00:22:15.277Z,0.00
2023-05-06T00:23:15.269Z,0.00
2023-05-06T00:24:15.262Z,0.00
2023-05-06T00:25:15.259Z,0.00
2023-05-06T00:26:15.209Z,0.00
2023-05-06T00:27:15.221Z,0.00
2023-05-06T00:28:15.207Z,0.00
2023-05-06T00:29:15.204Z,0.00
2023-05-06T00:30:15.163Z,0.00
2023-05-06T00:31:15.173Z,0.00
2023-05-06T00:32:15.151Z,0.00
2023-05-06T00:33:15.215Z,0.00
2023-05-06T00:34:15.124Z,0.00
2023-05-06T00:35:15.138Z,0.00
2023-05-06T00:36:15.112Z,0.00
2023-05-06T00:37:15.102Z,0.00
2023-05-06T00:38:15.774Z,0.00
2023-05-06T00:39:15.094Z,0.00
2023-05-06T00:40:15.071Z,0.00
2023-05-06T00:41:15.059Z,0.00
2023-05-06T00:42:15.052Z,0.00
2023-05-06T00:43:15.023Z,0.00
2023-05-06T00:44:15.063Z,0.00
2023-05-06T00:45:15.014Z,0.00
2023-05-06T00:46:15.074Z,0.00
2023-05-06T00:47:14.989Z,0.00
2023-05-06T00:48:15.024Z,0.00
2023-05-06T00:49:14.966Z,0.00
2023-05-06T00:50:14.959Z,0.00
2023-05-06T00:51:14.971Z,0.00
2023-05-06T00:52:14.957Z,0.00
2023-05-06T00:53:15.467Z,0.00
2023-05-06T00:54:14.940Z,0.00
2023-05-06T00:55:14.903Z,0.00
2023-05-06T00:56:14.891Z,0.00
2023-05-06T00:57:14.897Z,0.00
2023-05-06T00:58:14.889Z,0.00
2023-05-06T00:59:14.861Z,0.00
2023-05-06T01:00:14.840Z,0.00
2023-05-06T01:01:14.957Z,0.00
2023-05-06T01:02:14.891Z,0.00
2023-05-06T01:03:14.960Z,0.00
2023-05-06T01:04:14.793Z,0.00
2023-05-06T01:05:14.812Z,0.00
2023-05-06T01:06:14.777Z,0.00
2023-05-06T01:07:14.784Z,0.00
2023-05-06T01:08:14.770Z,0.00
2023-05-06T01:09:14.759Z,0.00
2023-05-06T01:10:14.723Z,0.00
2023-05-06T01:11:15.911Z,0.00
2023-05-06T01:12:14.726Z,0.00
2023-05-06T01:13:15.110Z,0.00
2023-05-06T01:14:14.690Z,0.00
2023-05-06T01:15:14.683Z,0.00
2023-05-06T01:16:14.666Z,0.00
2023-05-06T01:17:14.679Z,0.00
2023-05-06T01:18:14.647Z,0.00
2023-05-06T01:19:14.648Z,0.00
2023-05-06T01:20:14.619Z,0.00
2023-05-06T01:21:14.621Z,0.00
2023-05-06T01:22:14.601Z,0.00
2023-05-06T01:23:14.624Z,0.00
2023-05-06T01:24:14.615Z,0.00
2023-05-06T01:25:14.571Z,0.00
2023-05-06T01:26:14.561Z,0.00
2023-05-06T01:27:14.581Z,0.00
2023-05-06T01:28:14.544Z,0.00
2023-05-06T01:29:14.553Z,0.00
2023-05-06T01:30:14.527Z,0.00
2023-05-06T01:31:14.566Z,0.00
2023-05-06T01:32:14.514Z,0.00
2023-05-06T01:33:14.614Z,0.00
2023-05-06T01:34:14.477Z,0.00
2023-05-06T01:35:14.497Z,0.00
2023-05-06T01:36:14.449Z,0.00
2023-05-06T01:37:14.445Z,0.00
2023-05-06T01:38:14.426Z,0.00
2023-05-06T01:39:14.411Z,0.00
2023-05-06T01:40:14.408Z,0.00
2023-05-06T01:41:14.394Z,0.00
2023-05-06T01:42:14.370Z,0.00
2023-05-06T01:43:14.375Z,0.00
2023-05-06T01:44:14.353Z,0.00
2023-05-06T01:45:14.397Z,0.00
2023-05-06T01:46:14.368Z,0.00
2023-05-06T01:47:14.326Z,0.00
2023-05-06T01:48:14.302Z,0.00
2023-05-06T01:49:14.301Z,0.00
2023-05-06T01:50:14.320Z,0.00
2023-05-06T01:51:14.317Z,0.00
2023-05-06T01:52:14.271Z,0.00
2023-05-06T01:53:15.163Z,0.00
2023-05-06T01:54:14.247Z,0.00
2023-05-06T01:55:14.233Z,0.00
2023-05-06T01:56:14.241Z,0.00
2023-05-06T01:57:14.205Z,0.00
2023-05-06T01:58:14.202Z,0.00
2023-05-06T01:59:14.203Z,0.00
2023-05-06T02:00:14.171Z,0.00
2023-05-06T02:01:14.203Z,0.00
2023-05-06T02:02:14.154Z,0.00
2023-05-06T02:03:14.296Z,0.00
2023-05-06T02:04:14.131Z,0.00
2023-05-06T02:05:14.124Z,0.00
2023-05-06T02:06:14.111Z,0.00
2023-05-06T02:07:14.113Z,0.00
2023-05-06T02:08:14.121Z,0.00
2023-05-06T02:09:14.074Z,0.00
2023-05-06T02:10:14.089Z,0.00
2023-05-06T02:11:14.074Z,0.00
2023-05-06T02:12:14.066Z,0.00
2023-05-06T02:13:14.236Z,0.00
2023-05-06T02:14:14.029Z,0.00
2023-05-06T02:15:14.043Z,0.00
2023-05-06T02:16:14.015Z,0.00
2023-05-06T02:17:13.986Z,0.00
2023-05-06T02:18:13.975Z,0.00
2023-05-06T02:19:13.953Z,0.00
2023-05-06T02:20:14.213Z,0.00
2023-05-06T02:21:13.948Z,0.00
2023-05-06T02:22:13.965Z,0.00
2023-05-06T02:23:13.912Z,0.00
2023-05-06T02:24:13.926Z,0.00
2023-05-06T02:25:13.895Z,0.00
2023-05-06T02:26:13.901Z,0.00
2023-05-06T02:27:13.870Z,0.00
2023-05-06T02:28:13.878Z,0.00
2023-05-06T02:29:13.851Z,0.00
2023-05-06T02:30:13.869Z,0.00
2023-05-06T02:31:13.848Z,0.00
2023-05-06T02:32:13.828Z,0.00
2023-05-06T02:33:13.803Z,0.00
2023-05-06T02:34:13.801Z,0.00
2023-05-06T02:35:13.789Z,0.00
2023-05-06T02:36:13.792Z,0.00
2023-05-06T02:37:13.772Z,0.00
2023-05-06T02:38:13.763Z,0.00
2023-05-06T02:39:13.738Z,0.00
2023-05-06T02:40:13.899Z,0.00
2023-05-06T02:41:13.711Z,0.00
2023-05-06T02:42:13.792Z,0.00
2023-05-06T02:43:13.708Z,0.00
2023-05-06T02:44:13.697Z,0.00
2023-05-06T02:45:13.687Z,0.00
2023-05-06T02:46:13.753Z,0.00
2023-05-06T02:47:13.661Z,0.00
2023-05-06T02:48:13.663Z,0.00
2023-05-06T02:49:13.633Z,0.00
2023-05-06T02:50:13.636Z,0.00
2023-05-06T02:51:13.604Z,0.00
2023-05-06T02:52:13.617Z,0.00
2023-05-06T02:53:13.587Z,0.00
2023-05-06T02:54:13.587Z,0.00
2023-05-06T02:55:13.560Z,0.00
2023-05-06T02:56:13.555Z,0.00
2023-05-06T02:57:13.527Z,0.00
2023-05-06T02:58:13.565Z,0.00
2023-05-06T02:59:13.516Z,0.00
2023-05-06T03:00:13.512Z,0.00
2023-05-06T03:01:13.518Z,0.00
2023-05-06T03:02:13.492Z,0.00
2023-05-06T03:03:13.475Z,0.00
2023-05-06T03:04:13.494Z,0.00
2023-05-06T03:05:13.429Z,0.00
2023-05-06T03:06:13.464Z,0.00
2023-05-06T03:07:13.424Z,0.00
2023-05-06T03:08:13.419Z,0.00
2023-05-06T03:09:13.401Z,0.00
2023-05-06T03:10:13.398Z,0.00
2023-05-06T03:11:13.394Z,0.00
2023-05-06T03:12:13.384Z,0.00
2023-05-06T03:13:13.404Z,0.00
2023-05-06T03:14:13.368Z,0.00
2023-05-06T03:15:13.420Z,0.00
2023-05-06T03:16:13.446Z,0.00
2023-05-06T03:17:13.310Z,0.00
2023-05-06T03:18:13.337Z,0.00
2023-05-06T03:19:13.302Z,0.00
2023-05-06T03:20:13.288Z,0.00
2023-05-06T03:21:13.259Z,0.00
2023-05-06T03:22:14.029Z,0.00
2023-05-06T03:23:13.247Z,0.00
2023-05-06T03:24:13.241Z,0.00
2023-05-06T03:25:13.214Z,0.00
2023-05-06T03:26:13.224Z,0.00
2023-05-06T03:27:13.184Z,4.00
2023-05-06T03:28:13.207Z,4.00
2023-05-06T03:29:13.197Z,4.00
2023-05-06T03:30:13.167Z,0.00
2023-05-06T03:31:13.183Z,4.00
2023-05-06T03:32:13.184Z,4.00
2023-05-06T03:33:13.138Z,4.00
2023-05-06T03:34:13.143Z,4.00
2023-05-06T03:35:13.120Z,8.00
2023-05-06T03:36:13.119Z,4.00
2023-05-06T03:37:13.117Z,8.00
2023-05-06T03:38:13.092Z,8.00
2023-05-06T03:39:13.076Z,12.00
2023-05-06T03:40:13.064Z,12.00
2023-05-06T03:41:13.041Z,12.00
2023-05-06T03:42:13.044Z,12.00
2023-05-06T03:43:13.030Z,16.00
2023-05-06T03:44:13.017Z,16.00
2023-05-06T03:45:13.231Z,16.00
2023-05-06T03:46:13.024Z,20.00
2023-05-06T03:47:12.957Z,20.00
2023-05-06T03:48:13.054Z,24.00
2023-05-06T03:49:12.949Z,24.00
2023-05-06T03:50:12.977Z,28.00
2023-05-06T03:51:12.934Z,32.00
2023-05-06T03:52:12.928Z,32.00
2023-05-06T03:53:12.898Z,40.00
2023-05-06T03:54:13.093Z,40.00
2023-05-06T03:55:12.895Z,40.00
2023-05-06T03:56:12.870Z,44.00
2023-05-06T03:57:12.864Z,48.00
2023-05-06T03:58:12.864Z,52.00
2023-05-06T03:59:12.856Z,52.00
2023-05-06T04:00:12.872Z,60.00
2023-05-06T04:01:12.819Z,64.00
2023-05-06T04:02:13.137Z,64.00
2023-05-06T04:03:12.861Z,68.00
2023-05-06T04:04:12.859Z,76.00
2023-05-06T04:05:12.878Z,84.00
2023-05-06T04:06:12.769Z,92.00
2023-05-06T04:07:12.752Z,92.00
2023-05-06T04:08:12.740Z,96.00
2023-05-06T04:09:12.890Z,104.00
2023-05-06T04:10:12.730Z,108.00
2023-05-06T04:11:12.707Z,112.00
2023-05-06T04:12:12.703Z,120.00
2023-05-06T04:13:12.770Z,128.00
2023-05-06T04:14:12.688Z,136.00
2023-05-06T04:15:12.801Z,144.00
2023-05-06T04:16:12.697Z,152.00
2023-05-06T04:17:12.634Z,156.00
2023-05-06T04:18:12.628Z,168.00
2023-05-06T04:19:12.618Z,180.00
2023-05-06T04:20:12.637Z,184.00
2023-05-06T04:21:12.592Z,196.00
2023-05-06T04:22:12.579Z,212.00
2023-05-06T04:23:12.575Z,228.00
2023-05-06T04:24:12.566Z,236.00
2023-05-06T04:25:12.799Z,248.00
2023-05-06T04:26:12.540Z,260.00
2023-05-06T04:27:12.529Z,272.00
2023-05-06T04:28:12.537Z,288.00
2023-05-06T04:29:12.504Z,300.00
2023-05-06T04:30:12.536Z,308.00
2023-05-06T04:31:12.522Z,316.00
2023-05-06T04:32:12.494Z,336.00
2023-05-06T04:33:12.481Z,348.00
2023-05-06T04:34:12.464Z,364.00
2023-05-06T04:35:12.549Z,372.00
2023-05-06T04:36:12.432Z,384.00
2023-05-06T04:37:12.431Z,392.00
2023-05-06T04:38:12.409Z,404.00
2023-05-06T04:39:12.419Z,416.00
2023-05-06T04:40:12.417Z,424.00
2023-05-06T04:41:12.366Z,436.00
2023-05-06T04:42:12.580Z,440.00
2023-05-06T04:43:12.346Z,448.00
2023-05-06T04:44:12.339Z,456.00
2023-05-06T04:45:12.390Z,472.00
2023-05-06T04:46:12.348Z,480.00
2023-05-06T04:47:12.323Z,484.00
2023-05-06T04:48:12.301Z,496.00
2023-05-06T04:49:12.774Z,512.00
2023-05-06T04:50:12.280Z,516.00
2023-05-06T04:51:12.262Z,528.00
2023-05-06T04:52:12.272Z,540.00
2023-05-06T04:53:12.273Z,544.00
2023-05-06T04:54:12.249Z,560.00
2023-05-06T04:55:12.501Z,564.00
2023-05-06T04:56:12.200Z,576.00
2023-05-06T04:57:12.198Z,588.00
2023-05-06T04:58:12.195Z,592.00
2023-05-06T04:59:12.218Z,600.00
2023-05-06T05:00:12.324Z,620.00
2023-05-06T05:01:12.191Z,624.00
2023-05-06T05:02:12.164Z,628.00
2023-05-06T05:03:12.211Z,644.00
2023-05-06T05:04:12.118Z,652.00
2023-05-06T05:05:12.378Z,660.00
2023-05-06T05:06:12.128Z,672.00
2023-05-06T05:07:12.116Z,688.00
2023-05-06T05:08:12.072Z,688.00
2023-05-06T05:09:12.068Z,692.00
2023-05-06T05:10:12.049Z,696.00
2023-05-06T05:11:12.033Z,712.00
2023-05-06T05:12:12.033Z,704.00
2023-05-06T05:13:12.166Z,720.00
2023-05-06T05:14:13.016Z,716.00
2023-05-06T05:15:12.259Z,720.00
2023-05-06T05:16:11.979Z,692.00
2023-05-06T05:17:12.007Z,720.00
2023-05-06T05:18:12.008Z,728.00
2023-05-06T05:19:11.956Z,764.00
2023-05-06T05:20:12.007Z,780.00
2023-05-06T05:21:11.930Z,804.00
2023-05-06T05:22:11.917Z,812.00
2023-05-06T05:23:11.906Z,816.00
2023-05-06T05:24:11.894Z,836.00
2023-05-06T05:25:12.171Z,808.00
2023-05-06T05:26:12.048Z,820.00
2023-05-06T05:27:11.853Z,840.00
2023-05-06T05:28:11.852Z,856.00
2023-05-06T05:29:11.820Z,864.00
2023-05-06T05:30:11.850Z,876.00
2023-05-06T05:31:11.869Z,908.00
2023-05-06T05:32:11.813Z,892.00
2023-05-06T05:33:11.896Z,892.00
2023-05-06T05:34:11.788Z,932.00
2023-05-06T05:35:12.038Z,920.00
2023-05-06T05:36:11.776Z,988.00
2023-05-06T05:37:11.738Z,1020.00
2023-05-06T05:38:11.756Z,1012.00
2023-05-06T05:39:11.718Z,984.00
2023-05-06T05:40:11.730Z,928.00
2023-05-06T05:41:11.723Z,912.00
2023-05-06T05:42:11.700Z,888.00
2023-05-06T05:43:11.708Z,896.00
2023-05-06T05:44:11.664Z,872.00
2023-05-06T05:45:11.715Z,872.00
2023-05-06T05:46:11.664Z,856.00
2023-05-06T05:47:11.663Z,912.00
2023-05-06T05:48:11.670Z,964.00
2023-05-06T05:49:11.602Z,1000.00
2023-05-06T05:50:11.622Z,992.00
2023-05-06T05:51:11.840Z,984.00
2023-05-06T05:52:11.588Z,976.00
2023-05-06T05:53:11.578Z,992.00
2023-05-06T05:54:11.606Z,996.00
2023-05-06T05:55:12.251Z,1008.00
2023-05-06T05:56:11.553Z,1080.00
2023-05-06T05:57:11.541Z,1144.00
2023-05-06T05:58:11.535Z,1124.00
2023-05-06T05:59:11.514Z,1076.00
2023-05-06T06:00:13.482Z,1060.00
2023-05-06T06:01:11.481Z,1036.00
2023-05-06T06:02:11.454Z,996.00
2023-05-06T06:03:11.611Z,968.00
2023-05-06T06:04:11.554Z,1012.00
2023-05-06T06:05:11.522Z,1068.00
2023-05-06T06:06:11.432Z,1092.00
2023-05-06T06:07:11.438Z,1148.00
2023-05-06T06:08:11.418Z,1144.00
2023-05-06T06:09:11.380Z,1200.00
2023-05-06T06:10:11.377Z,1252.00
2023-05-06T06:11:11.438Z,1232.00
2023-05-06T06:12:11.352Z,1260.00
2023-05-06T06:13:11.421Z,1280.00
2023-05-06T06:14:11.388Z,1288.00
2023-05-06T06:15:11.546Z,1320.00
2023-05-06T06:16:11.353Z,1340.00
2023-05-06T06:17:11.299Z,1348.00
2023-05-06T06:18:11.325Z,1352.00
2023-05-06T06:19:11.292Z,1400.00
2023-05-06T06:20:11.276Z,1400.00
2023-05-06T06:21:11.257Z,1356.00
2023-05-06T06:22:11.248Z,1336.00
2023-05-06T06:23:11.244Z,1360.00
2023-05-06T06:24:11.221Z,1384.00
2023-05-06T06:25:11.446Z,1440.00
2023-05-06T06:26:12.438Z,1540.00
2023-05-06T06:27:11.189Z,1528.00
2023-05-06T06:28:11.185Z,1544.00
2023-05-06T06:29:11.185Z,1508.00
2023-05-06T06:30:11.158Z,1568.00
2023-05-06T06:31:11.215Z,1584.00
2023-05-06T06:32:11.247Z,1540.00
2023-05-06T06:33:11.124Z,1480.00
2023-05-06T06:34:11.119Z,1388.00
2023-05-06T06:35:11.318Z,1348.00
2023-05-06T06:36:11.100Z,1260.00
2023-05-06T06:37:11.071Z,1352.00
2023-05-06T06:38:11.071Z,1332.00
2023-05-06T06:39:11.067Z,1272.00
2023-05-06T06:40:11.050Z,1212.00
2023-05-06T06:41:11.033Z,1212.00
2023-05-06T06:42:11.035Z,1340.00
2023-05-06T06:43:11.018Z,1320.00
2023-05-06T06:44:11.013Z,1328.00
2023-05-06T06:45:11.274Z,1324.00
2023-05-06T06:46:11.058Z,1360.00
2023-05-06T06:47:10.988Z,1392.00
2023-05-06T06:48:11.029Z,1432.00
2023-05-06T06:49:10.955Z,1424.00
2023-05-06T06:50:10.948Z,1396.00
2023-05-06T06:51:11.488Z,1392.00
2023-05-06T06:52:10.916Z,1412.00
2023-05-06T06:53:10.922Z,1448.00
2023-05-06T06:54:10.889Z,1256.00
2023-05-06T06:55:11.101Z,1456.00
2023-05-06T06:56:10.883Z,1452.00
2023-05-06T06:57:10.877Z,1456.00
2023-05-06T06:58:10.860Z,1472.00
2023-05-06T06:59:10.858Z,1344.00
2023-05-06T07:00:10.832Z,1420.00
2023-05-06T07:01:10.861Z,1528.00
2023-05-06T07:02:10.794Z,1568.00
2023-05-06T07:03:10.838Z,1580.00
2023-05-06T07:04:10.817Z,1608.00
2023-05-06T07:05:11.021Z,1672.00
2023-05-06T07:06:10.792Z,1660.00
2023-05-06T07:07:10.765Z,1780.00
2023-05-06T07:08:10.737Z,1868.00
2023-05-06T07:09:10.709Z,1936.00
2023-05-06T07:10:10.695Z,1956.00
2023-05-06T07:11:10.717Z,1896.00
2023-05-06T07:12:10.934Z,1888.00
2023-05-06T07:13:10.743Z,1892.00
2023-05-06T07:14:10.660Z,1844.00
2023-05-06T07:15:10.859Z,1800.00
2023-05-06T07:16:10.638Z,1764.00
2023-05-06T07:17:10.680Z,1736.00
2023-05-06T07:18:10.632Z,1796.00
2023-05-06T07:19:10.602Z,1808.00
2023-05-06T07:20:10.585Z,1800.00
2023-05-06T07:21:10.585Z,1800.00
2023-05-06T07:22:10.558Z,1820.00
2023-05-06T07:23:10.584Z,1840.00
2023-05-06T07:24:10.542Z,1880.00
2023-05-06T07:25:10.892Z,1932.00
2023-05-06T07:26:10.510Z,1988.00
2023-05-06T07:27:10.530Z,2024.00
2023-05-06T07:28:10.528Z,2068.00
2023-05-06T07:29:10.496Z,2056.00
2023-05-06T07:30:10.483Z,1952.00
2023-05-06T07:31:10.502Z,1944.00
2023-05-06T07:32:10.465Z,1916.00
2023-05-06T07:33:10.452Z,1900.00
2023-05-06T07:34:10.448Z,2028.00
2023-05-06T07:35:10.719Z,2108.00
2023-05-06T07:36:10.408Z,2208.00
2023-05-06T07:37:10.404Z,2228.00
2023-05-06T07:38:10.446Z,2224.00
2023-05-06T07:39:10.388Z,2248.00
2023-05-06T07:40:10.367Z,2244.00
2023-05-06T07:41:10.363Z,2224.00
2023-05-06T07:42:10.343Z,2272.00
2023-05-06T07:43:10.345Z,2336.00
2023-05-06T07:44:10.333Z,2404.00
2023-05-06T07:45:10.544Z,2476.00
2023-05-06T07:46:10.366Z,2524.00
2023-05-06T07:47:10.431Z,2560.00
2023-05-06T07:48:10.285Z,2584.00
2023-05-06T07:49:10.267Z,2664.00
2023-05-06T07:50:10.253Z,2808.00
2023-05-06T07:51:10.245Z,2920.00
2023-05-06T07:52:10.231Z,2904.00
2023-05-06T07:53:10.252Z,2880.00
2023-05-06T07:54:10.447Z,3036.00
2023-05-06T07:55:10.406Z,2852.00
2023-05-06T07:56:10.189Z,2744.00
2023-05-06T07:57:10.189Z,2508.00
2023-05-06T07:58:10.204Z,2384.00
2023-05-06T07:59:10.163Z,2284.00
2023-05-06T08:00:10.277Z,2300.00
2023-05-06T08:01:10.177Z,2324.00
2023-05-06T08:02:10.152Z,2308.00
2023-05-06T08:03:10.248Z,2412.00
2023-05-06T08:04:10.240Z,2596.00
2023-05-06T08:05:10.315Z,2624.00
2023-05-06T08:06:10.085Z,2516.00
2023-05-06T08:07:10.085Z,2744.00
2023-05-06T08:08:10.056Z,2596.00
2023-05-06T08:09:12.910Z,2116.00
2023-05-06T08:10:11.060Z,2036.00
2023-05-06T08:11:10.041Z,2156.00
2023-05-06T08:12:10.026Z,2028.00
2023-05-06T08:13:10.088Z,2000.00
2023-05-06T08:14:10.013Z,2156.00
2023-05-06T08:15:10.109Z,2260.00
2023-05-06T08:16:09.998Z,2372.00
2023-05-06T08:17:09.976Z,2388.00
2023-05-06T08:18:21.087Z,2364.00
2023-05-06T08:19:10.978Z,2664.00
2023-05-06T08:20:09.966Z,2896.00
2023-05-06T08:21:09.933Z,2736.00
2023-05-06T08:22:10.249Z,2836.00
2023-05-06T08:23:09.941Z,2844.00
2023-05-06T08:24:09.910Z,2736.00
2023-05-06T08:25:10.151Z,2760.00
2023-05-06T08:26:09.865Z,2788.00
2023-05-06T08:27:09.855Z,2420.00
2023-05-06T08:28:09.826Z,2312.00
2023-05-06T08:29:09.865Z,2172.00
2023-05-06T08:30:09.807Z,2564.00
2023-05-06T08:31:09.814Z,2396.00
2023-05-06T08:32:09.845Z,2164.00
2023-05-06T08:33:09.838Z,2528.00
2023-05-06T08:34:09.782Z,2532.00
2023-05-06T08:35:10.089Z,2464.00
2023-05-06T08:36:09.739Z,2472.00
2023-05-06T08:37:09.740Z,2444.00
2023-05-06T08:38:09.732Z,2168.00
2023-05-06T08:39:09.733Z,2456.00
2023-05-06T08:40:09.713Z,2580.00
2023-05-06T08:41:09.693Z,2172.00
2023-05-06T08:42:09.676Z,2012.00
2023-05-06T08:43:09.686Z,2092.00
2023-05-06T08:44:09.653Z,2100.00
2023-05-06T08:45:09.851Z,2544.00
2023-05-06T08:46:09.713Z,2336.00
2023-05-06T08:47:09.630Z,2632.00
2023-05-06T08:48:09.610Z,2320.00
2023-05-06T08:49:09.614Z,2536.00
2023-05-06T08:50:09.631Z,2516.00
2023-05-06T08:51:09.638Z,2460.00
2023-05-06T08:52:09.565Z,2564.00
2023-05-06T08:53:09.599Z,2552.00
2023-05-06T08:54:09.574Z,2512.00
2023-05-06T08:55:10.087Z,2244.00
2023-05-06T08:56:09.556Z,1936.00
2023-05-06T08:57:11.622Z,2260.00
2023-05-06T08:58:09.495Z,2184.00
2023-05-06T08:59:09.625Z,2288.00
2023-05-06T09:00:10.196Z,2208.00
2023-05-06T09:01:09.543Z,2308.00
2023-05-06T09:02:09.515Z,2392.00
2023-05-06T09:03:09.537Z,2284.00
2023-05-06T09:04:09.465Z,1836.00
2023-05-06T09:05:09.817Z,2376.00
2023-05-06T09:06:09.425Z,2380.00
2023-05-06T09:07:09.431Z,2352.00
2023-05-06T09:08:09.388Z,2324.00
2023-05-06T09:09:09.429Z,1796.00
2023-05-06T09:10:09.598Z,2320.00
2023-05-06T09:11:09.362Z,2312.00
2023-05-06T09:12:09.370Z,2272.00
2023-05-06T09:13:09.393Z,2296.00
2023-05-06T09:14:09.317Z,2272.00
2023-05-06T09:15:09.662Z,2272.00
2023-05-06T09:16:09.335Z,2312.00
2023-05-06T09:17:09.361Z,2340.00
2023-05-06T09:18:09.331Z,2408.00
2023-05-06T09:19:09.259Z,2468.00
2023-05-06T09:20:09.254Z,2440.00
2023-05-06T09:21:09.244Z,2532.00
2023-05-06T09:22:09.230Z,2580.00
2023-05-06T09:23:09.231Z,2644.00
2023-05-06T09:24:09.203Z,2684.00
2023-05-06T09:25:09.350Z,2712.00
2023-05-06T09:26:09.204Z,2644.00
2023-05-06T09:27:10.664Z,2536.00
2023-05-06T09:28:09.187Z,2504.00
2023-05-06T09:29:09.195Z,2564.00
2023-05-06T09:30:09.189Z,2668.00
2023-05-06T09:31:09.248Z,2676.00
2023-05-06T09:32:09.160Z,2676.00
2023-05-06T09:33:09.153Z,2676.00
2023-05-06T09:34:09.091Z,2604.00
2023-05-06T09:35:09.495Z,2008.00
2023-05-06T09:36:09.085Z,1932.00
2023-05-06T09:37:09.083Z,2032.00
2023-05-06T09:38:09.083Z,2492.00
2023-05-06T09:39:09.063Z,2604.00
2023-05-06T09:40:09.040Z,2592.00
2023-05-06T09:41:09.023Z,2660.00
2023-05-06T09:42:09.025Z,2680.00
2023-05-06T09:43:09.018Z,2640.00
2023-05-06T09:44:08.984Z,2540.00
2023-05-06T09:45:09.151Z,2584.00
2023-05-06T09:46:09.087Z,2600.00
2023-05-06T09:47:08.965Z,2136.00
2023-05-06T09:48:09.013Z,2588.00
2023-05-06T09:49:08.930Z,2504.00
2023-05-06T09:50:08.921Z,2720.00
2023-05-06T09:51:08.935Z,2784.00
2023-05-06T09:52:08.912Z,2796.00
2023-05-06T09:53:08.921Z,2684.00
2023-05-06T09:54:08.912Z,2736.00
2023-05-06T09:55:09.156Z,2784.00
2023-05-06T09:56:08.861Z,2332.00
2023-05-06T09:57:08.858Z,2632.00
2023-05-06T09:58:08.821Z,2724.00
2023-05-06T09:59:08.848Z,2736.00
2023-05-06T10:00:08.847Z,2760.00
2023-05-06T10:01:08.865Z,2736.00
2023-05-06T10:02:08.801Z,2672.00
2023-05-06T10:03:08.884Z,2420.00
2023-05-06T10:04:09.075Z,2328.00
2023-05-06T10:05:09.057Z,2800.00
2023-05-06T10:06:08.749Z,2784.00
2023-05-06T10:07:08.758Z,2804.00
2023-05-06T10:08:08.727Z,2880.00
2023-05-06T10:09:08.738Z,2936.00
2023-05-06T10:10:08.705Z,2964.00
2023-05-06T10:11:08.740Z,3040.00
2023-05-06T10:12:08.701Z,3072.00
2023-05-06T10:13:08.702Z,3060.00
2023-05-06T10:14:08.647Z,3068.00
2023-05-06T10:15:08.934Z,3012.00
2023-05-06T10:16:08.669Z,2960.00
2023-05-06T10:17:08.645Z,2876.00
2023-05-06T10:18:08.692Z,2836.00
2023-05-06T10:19:08.602Z,2856.00
2023-05-06T10:20:08.636Z,2856.00
2023-05-06T10:21:08.584Z,2872.00
2023-05-06T10:22:08.561Z,2720.00
2023-05-06T10:23:08.570Z,2884.00
2023-05-06T10:24:08.534Z,2916.00
2023-05-06T10:25:08.786Z,2980.00
2023-05-06T10:26:08.526Z,3028.00
2023-05-06T10:27:08.538Z,3056.00
2023-05-06T10:28:10.984Z,3120.00
2023-05-06T10:29:08.507Z,3056.00
2023-05-06T10:30:08.485Z,3004.00
2023-05-06T10:31:08.471Z,2880.00
2023-05-06T10:32:08.452Z,2800.00
2023-05-06T10:33:08.496Z,2756.00
2023-05-06T10:34:08.431Z,2692.00
2023-05-06T10:35:08.614Z,2676.00
2023-05-06T10:36:08.447Z,2788.00
2023-05-06T10:37:08.401Z,2944.00
2023-05-06T10:38:08.371Z,2940.00
2023-05-06T10:39:08.381Z,2964.00
2023-05-06T10:40:08.372Z,2984.00
2023-05-06T10:41:08.354Z,2920.00
2023-05-06T10:42:08.353Z,2888.00
2023-05-06T10:43:08.373Z,2960.00
2023-05-06T10:44:08.363Z,3004.00
2023-05-06T10:45:08.568Z,3136.00
2023-05-06T10:46:08.366Z,3136.00
2023-05-06T10:47:08.311Z,2912.00
2023-05-06T10:48:08.348Z,3032.00
2023-05-06T10:49:08.653Z,2812.00
2023-05-06T10:50:08.258Z,2160.00
2023-05-06T10:51:08.246Z,2528.00
2023-05-06T10:52:08.236Z,3064.00
2023-05-06T10:53:08.225Z,3064.00
2023-05-06T10:54:08.283Z,3024.00
2023-05-06T10:55:08.449Z,3000.00
2023-05-06T10:56:08.192Z,2996.00
2023-05-06T10:57:08.189Z,3024.00
2023-05-06T10:58:08.177Z,2984.00
2023-05-06T10:59:08.349Z,3008.00
2023-05-06T11:00:08.174Z,2936.00
2023-05-06T11:01:08.349Z,2372.00
2023-05-06T11:02:08.173Z,2828.00
2023-05-06T11:03:08.329Z,3172.00
2023-05-06T11:04:08.162Z,3324.00
2023-05-06T11:05:08.228Z,3376.00
2023-05-06T11:06:08.121Z,3396.00
2023-05-06T11:07:08.072Z,3396.00
2023-05-06T11:08:08.100Z,3424.00
2023-05-06T11:09:08.071Z,3360.00
2023-05-06T11:10:08.159Z,3332.00
2023-05-06T11:11:08.011Z,3304.00
2023-05-06T11:12:08.101Z,3252.00
2023-05-06T11:13:08.023Z,3208.00
2023-05-06T11:14:08.018Z,3280.00
2023-05-06T11:15:08.232Z,3272.00
2023-05-06T11:16:07.972Z,3248.00
2023-05-06T11:17:08.038Z,3232.00
2023-05-06T11:18:08.132Z,2504.00
2023-05-06T11:19:07.936Z,2112.00
2023-05-06T11:20:07.995Z,2124.00
2023-05-06T11:21:08.040Z,2084.00
2023-05-06T11:22:07.956Z,2144.00
2023-05-06T11:23:07.919Z,2220.00
2023-05-06T11:24:07.905Z,2328.00
2023-05-06T11:25:07.879Z,2408.00
2023-05-06T11:26:07.915Z,2524.00
2023-05-06T11:27:07.871Z,2624.00
2023-05-06T11:28:07.859Z,2968.00
2023-05-06T11:29:07.825Z,3252.00
2023-05-06T11:30:07.834Z,3600.00
2023-05-06T11:31:07.991Z,3808.00
2023-05-06T11:32:07.800Z,3744.00
2023-05-06T11:33:07.799Z,3804.00
2023-05-06T11:34:07.771Z,3912.00
2023-05-06T11:35:07.747Z,3972.00
2023-05-06T11:36:07.773Z,3976.00
2023-05-06T11:37:07.742Z,3864.00
2023-05-06T11:38:07.758Z,3980.00
2023-05-06T11:39:07.713Z,4000.00
2023-05-06T11:40:07.716Z,4020.00
2023-05-06T11:41:07.697Z,4088.00
2023-05-06T11:42:07.735Z,4128.00
2023-05-06T11:43:07.670Z,4280.00
2023-05-06T11:44:09.687Z,4360.00
2023-05-06T11:45:07.654Z,4388.00
2023-05-06T11:46:07.691Z,4432.00
2023-05-06T11:47:07.735Z,4504.00
2023-05-06T11:48:07.651Z,4636.00
2023-05-06T11:49:07.614Z,4580.00
2023-05-06T11:50:07.813Z,4644.00
2023-05-06T11:51:07.582Z,4628.00
2023-05-06T11:52:07.597Z,4664.00
2023-05-06T11:53:07.564Z,3480.00
2023-05-06T11:54:07.600Z,3336.00
2023-05-06T11:55:07.543Z,3208.00
2023-05-06T11:56:07.537Z,3124.00
2023-05-06T11:57:07.527Z,3432.00
2023-05-06T11:58:07.506Z,4144.00
2023-05-06T11:59:07.486Z,4068.00
2023-05-06T12:00:07.475Z,4140.00
2023-05-06T12:01:07.467Z,4148.00
2023-05-06T12:02:07.454Z,4236.00
2023-05-06T12:03:07.595Z,4348.00
2023-05-06T12:04:07.549Z,4428.00
2023-05-06T12:05:07.441Z,4524.00
2023-05-06T12:06:07.414Z,4464.00
2023-05-06T12:07:07.406Z,4408.00
2023-05-06T12:08:16.370Z,4372.00
2023-05-06T12:09:08.384Z,4352.00
2023-05-06T12:10:07.513Z,4328.00
2023-05-06T12:11:07.354Z,4348.00
2023-05-06T12:12:07.339Z,4256.00
2023-05-06T12:13:07.392Z,3988.00
2023-05-06T12:14:07.364Z,4056.00
2023-05-06T12:15:07.319Z,4168.00
2023-05-06T12:16:07.325Z,4232.00
2023-05-06T12:17:07.279Z,4608.00
2023-05-06T12:18:07.341Z,4480.00
2023-05-06T12:19:07.263Z,4636.00
2023-05-06T12:20:07.280Z,4644.00
2023-05-06T12:21:07.266Z,4760.00
2023-05-06T12:22:07.271Z,4828.00
2023-05-06T12:23:07.247Z,4764.00
2023-05-06T12:24:07.390Z,4496.00
2023-05-06T12:25:07.236Z,4156.00
2023-05-06T12:26:07.208Z,3736.00
2023-05-06T12:27:07.276Z,4056.00
2023-05-06T12:28:07.230Z,3128.00
2023-05-06T12:29:07.204Z,3096.00
2023-05-06T12:30:07.184Z,3420.00